sensor_id;sensor_type;location;lat;lon;timestamp;temperature;humidity
37998;DHT22;24079;51.824;4.682;2023-01-15T00:01:32;8.50;99.90
37998;DHT22;24079;51.824;4.682;2023-01-15T00:04:02;8.50;99.90
37998;DHT22;24079;51.824;4.682;2023-01-15T00:06:28;8.50;99.90
37998;DHT22;24079;51.824;4.682;2023-01-15T00:08:54;8.50;99.90
37998;DHT22;24079;51.824;4.682;2023-01-15T00:11:21;8.50;99.90
37998;DHT22;24079;51.824;4.682;2023-01-15T00:13:47;8.50;99.90
37998;DHT22;24079;51.824;4.682;2023-01-15T00:16:18;8.40;99.90
37998;DHT22;24079;51.824;4.682;2023-01-15T00:18:52;8.40;99.90
37998;DHT22;24079;51.824;4.682;2023-01-15T00:21:18;8.40;99.90
37998;DHT22;24079;51.824;4.682;2023-01-15T00:23:44;8.40;99.90
37998;DHT22;24079;51.824;4.682;2023-01-15T00:26:30;8.40;99.90
37998;DHT22;24079;51.824;4.682;2023-01-15T00:29:15;8.40;99.90
37998;DHT22;24079;51.824;4.682;2023-01-15T00:31:43;8.40;99.90
37998;DHT22;24079;51.824;4.682;2023-01-15T00:34:10;8.40;99.90
37998;DHT22;24079;51.824;4.682;2023-01-15T00:36:35;8.40;99.90
37998;DHT22;24079;51.824;4.682;2023-01-15T00:39:03;8.40;99.90
37998;DHT22;24079;51.824;4.682;2023-01-15T00:41:28;8.40;99.90
37998;DHT22;24079;51.824;4.682;2023-01-15T00:43:54;8.40;99.90
37998;DHT22;24079;51.824;4.682;2023-01-15T00:46:21;8.30;99.90
37998;DHT22;24079;51.824;4.682;2023-01-15T00:48:46;8.30;99.90
37998;DHT22;24079;51.824;4.682;2023-01-15T00:51:12;8.30;99.90
37998;DHT22;24079;51.824;4.682;2023-01-15T00:53:38;8.30;99.90
37998;DHT22;24079;51.824;4.682;2023-01-15T00:56:04;8.40;99.90
37998;DHT22;24079;51.824;4.682;2023-01-15T00:58:29;8.30;99.90
37998;DHT22;24079;51.824;4.682;2023-01-15T01:00:56;8.30;99.90
37998;DHT22;24079;51.824;4.682;2023-01-15T01:03:22;8.30;99.90
37998;DHT22;24079;51.824;4.682;2023-01-15T01:05:49;8.30;99.90
37998;DHT22;24079;51.824;4.682;2023-01-15T01:08:15;8.30;99.90
37998;DHT22;24079;51.824;4.682;2023-01-15T01:10:41;8.30;99.90
37998;DHT22;24079;51.824;4.682;2023-01-15T01:13:08;8.30;99.90
37998;DHT22;24079;51.824;4.682;2023-01-15T01:15:35;8.40;99.90
37998;DHT22;24079;51.824;4.682;2023-01-15T01:18:01;8.30;99.90
37998;DHT22;24079;51.824;4.682;2023-01-15T01:20:27;8.20;99.90
37998;DHT22;24079;51.824;4.682;2023-01-15T01:22:53;8.20;99.90
37998;DHT22;24079;51.824;4.682;2023-01-15T01:25:19;8.20;99.90
37998;DHT22;24079;51.824;4.682;2023-01-15T01:27:45;8.30;99.90
37998;DHT22;24079;51.824;4.682;2023-01-15T01:30:12;8.30;99.90
37998;DHT22;24079;51.824;4.682;2023-01-15T01:32:37;8.20;99.90
37998;DHT22;24079;51.824;4.682;2023-01-15T01:35:04;8.20;99.90
37998;DHT22;24079;51.824;4.682;2023-01-15T01:37:29;8.20;99.90
37998;DHT22;24079;51.824;4.682;2023-01-15T01:39:55;8.20;99.90
37998;DHT22;24079;51.824;4.682;2023-01-15T01:42:21;8.20;99.90
37998;DHT22;24079;51.824;4.682;2023-01-15T01:45:32;8.20;99.90
37998;DHT22;24079;51.824;4.682;2023-01-15T01:47:33;8.20;99.90
37998;DHT22;24079;51.824;4.682;2023-01-15T01:50:05;8.20;99.90
37998;DHT22;24079;51.824;4.682;2023-01-15T01:52:41;8.20;99.90
37998;DHT22;24079;51.824;4.682;2023-01-15T01:55:08;8.20;99.90
37998;DHT22;24079;51.824;4.682;2023-01-15T01:57:36;8.20;99.90
37998;DHT22;24079;51.824;4.682;2023-01-15T02:00:03;8.20;99.90
37998;DHT22;24079;51.824;4.682;2023-01-15T02:02:31;8.20;99.90
37998;DHT22;24079;51.824;4.682;2023-01-15T02:04:57;8.20;99.90
37998;DHT22;24079;51.824;4.682;2023-01-15T02:07:23;8.20;99.90
37998;DHT22;24079;51.824;4.682;2023-01-15T02:09:49;8.20;99.90
37998;DHT22;24079;51.824;4.682;2023-01-15T02:12:20;8.20;99.90
37998;DHT22;24079;51.824;4.682;2023-01-15T02:17:34;8.10;99.90
37998;DHT22;24079;51.824;4.682;2023-01-15T02:27:33;8.00;99.90
37998;DHT22;24079;51.824;4.682;2023-01-15T02:30:11;8.00;99.90
37998;DHT22;24079;51.824;4.682;2023-01-15T02:32:49;8.00;99.90
37998;DHT22;24079;51.824;4.682;2023-01-15T02:37:55;8.00;99.90
37998;DHT22;24079;51.824;4.682;2023-01-15T02:40:24;8.00;99.90
37998;DHT22;24079;51.824;4.682;2023-01-15T02:42:52;8.00;99.90
37998;DHT22;24079;51.824;4.682;2023-01-15T02:45:22;8.00;99.90
37998;DHT22;24079;51.824;4.682;2023-01-15T02:47:52;8.00;99.90
37998;DHT22;24079;51.824;4.682;2023-01-15T02:50:24;8.00;99.90
37998;DHT22;24079;51.824;4.682;2023-01-15T02:52:55;8.10;99.90
37998;DHT22;24079;51.824;4.682;2023-01-15T02:55:31;8.00;99.90
37998;DHT22;24079;51.824;4.682;2023-01-15T02:58:01;8.00;99.90
37998;DHT22;24079;51.824;4.682;2023-01-15T03:00:30;8.00;99.90
37998;DHT22;24079;51.824;4.682;2023-01-15T03:03:02;8.00;99.90
37998;DHT22;24079;51.824;4.682;2023-01-15T03:05:38;8.00;99.90
37998;DHT22;24079;51.824;4.682;2023-01-15T03:08:06;8.00;99.90
37998;DHT22;24079;51.824;4.682;2023-01-15T03:16:21;8.00;99.90
37998;DHT22;24079;51.824;4.682;2023-01-15T03:22:14;8.10;99.90
37998;DHT22;24079;51.824;4.682;2023-01-15T03:24:59;8.00;99.90
37998;DHT22;24079;51.824;4.682;2023-01-15T03:27:26;8.00;99.90
37998;DHT22;24079;51.824;4.682;2023-01-15T03:30:10;7.90;99.90
37998;DHT22;24079;51.824;4.682;2023-01-15T03:32:36;7.90;99.90
37998;DHT22;24079;51.824;4.682;2023-01-15T03:35:03;7.90;99.90
37998;DHT22;24079;51.824;4.682;2023-01-15T03:37:30;7.90;99.90
37998;DHT22;24079;51.824;4.682;2023-01-15T03:39:57;7.90;99.90
37998;DHT22;24079;51.824;4.682;2023-01-15T03:42:49;7.90;99.90
37998;DHT22;24079;51.824;4.682;2023-01-15T03:45:38;7.90;99.90
37998;DHT22;24079;51.824;4.682;2023-01-15T03:51:07;7.80;99.90
37998;DHT22;24079;51.824;4.682;2023-01-15T03:53:48;7.80;99.90
37998;DHT22;24079;51.824;4.682;2023-01-15T03:56:28;7.80;99.90
37998;DHT22;24079;51.824;4.682;2023-01-15T03:59:07;7.80;99.90
37998;DHT22;24079;51.824;4.682;2023-01-15T04:01:38;7.80;99.90
37998;DHT22;24079;51.824;4.682;2023-01-15T04:04:05;7.80;99.90
37998;DHT22;24079;51.824;4.682;2023-01-15T04:06:34;7.80;99.90
37998;DHT22;24079;51.824;4.682;2023-01-15T04:09:02;7.80;99.90
37998;DHT22;24079;51.824;4.682;2023-01-15T04:11:29;7.80;99.90
37998;DHT22;24079;51.824;4.682;2023-01-15T04:13:54;7.80;99.90
37998;DHT22;24079;51.824;4.682;2023-01-15T04:16:26;7.80;99.90
37998;DHT22;24079;51.824;4.682;2023-01-15T04:18:52;7.80;99.90
37998;DHT22;24079;51.824;4.682;2023-01-15T04:21:17;7.80;99.90
37998;DHT22;24079;51.824;4.682;2023-01-15T04:23:43;7.80;99.90
37998;DHT22;24079;51.824;4.682;2023-01-15T04:26:09;7.70;99.90
37998;DHT22;24079;51.824;4.682;2023-01-15T04:28:35;7.70;99.90
37998;DHT22;24079;51.824;4.682;2023-01-15T04:31:01;7.70;99.90
37998;DHT22;24079;51.824;4.682;2023-01-15T04:33:27;7.60;99.90
37998;DHT22;24079;51.824;4.682;2023-01-15T04:35:53;7.60;99.90
37998;DHT22;24079;51.824;4.682;2023-01-15T04:38:19;7.60;99.90
37998;DHT22;24079;51.824;4.682;2023-01-15T04:40:45;7.60;99.90
37998;DHT22;24079;51.824;4.682;2023-01-15T04:43:29;7.60;99.90
37998;DHT22;24079;51.824;4.682;2023-01-15T04:46:22;7.50;99.90
37998;DHT22;24079;51.824;4.682;2023-01-15T04:48:48;7.50;99.90
37998;DHT22;24079;51.824;4.682;2023-01-15T04:51:13;7.50;99.90
37998;DHT22;24079;51.824;4.682;2023-01-15T04:53:39;7.50;99.90
37998;DHT22;24079;51.824;4.682;2023-01-15T04:56:05;7.50;99.90
37998;DHT22;24079;51.824;4.682;2023-01-15T04:58:32;7.50;99.90
37998;DHT22;24079;51.824;4.682;2023-01-15T05:00:58;7.50;99.90
37998;DHT22;24079;51.824;4.682;2023-01-15T05:03:27;7.50;99.90
37998;DHT22;24079;51.824;4.682;2023-01-15T05:05:53;7.50;99.90
37998;DHT22;24079;51.824;4.682;2023-01-15T05:08:19;7.50;99.90
37998;DHT22;24079;51.824;4.682;2023-01-15T05:10:44;7.50;99.90
37998;DHT22;24079;51.824;4.682;2023-01-15T05:13:10;7.40;99.90
37998;DHT22;24079;51.824;4.682;2023-01-15T05:15:36;7.50;99.90
37998;DHT22;24079;51.824;4.682;2023-01-15T05:18:03;7.50;99.90
37998;DHT22;24079;51.824;4.682;2023-01-15T05:20:29;7.50;99.90
37998;DHT22;24079;51.824;4.682;2023-01-15T05:22:54;7.40;99.90
37998;DHT22;24079;51.824;4.682;2023-01-15T05:25:20;7.50;99.90
37998;DHT22;24079;51.824;4.682;2023-01-15T05:27:45;7.50;99.90
37998;DHT22;24079;51.824;4.682;2023-01-15T05:30:11;7.50;99.90
37998;DHT22;24079;51.824;4.682;2023-01-15T05:32:38;7.50;99.90
37998;DHT22;24079;51.824;4.682;2023-01-15T05:35:04;7.50;99.90
37998;DHT22;24079;51.824;4.682;2023-01-15T05:37:30;7.50;99.90
37998;DHT22;24079;51.824;4.682;2023-01-15T05:39:56;7.50;99.90
37998;DHT22;24079;51.824;4.682;2023-01-15T05:42:21;7.50;99.90
37998;DHT22;24079;51.824;4.682;2023-01-15T05:44:47;7.60;99.90
37998;DHT22;24079;51.824;4.682;2023-01-15T05:47:12;7.60;99.90
37998;DHT22;24079;51.824;4.682;2023-01-15T05:49:39;7.60;99.90
37998;DHT22;24079;51.824;4.682;2023-01-15T05:52:05;7.70;99.90
37998;DHT22;24079;51.824;4.682;2023-01-15T05:54:32;7.70;99.90
37998;DHT22;24079;51.824;4.682;2023-01-15T05:56:59;7.70;99.90
37998;DHT22;24079;51.824;4.682;2023-01-15T05:59:27;7.70;99.90
37998;DHT22;24079;51.824;4.682;2023-01-15T06:01:53;7.70;99.90
37998;DHT22;24079;51.824;4.682;2023-01-15T06:04:19;7.60;99.90
37998;DHT22;24079;51.824;4.682;2023-01-15T06:06:47;7.40;99.90
37998;DHT22;24079;51.824;4.682;2023-01-15T06:09:13;7.40;99.90
37998;DHT22;24079;51.824;4.682;2023-01-15T06:11:40;7.40;99.90
37998;DHT22;24079;51.824;4.682;2023-01-15T06:14:06;7.40;99.90
37998;DHT22;24079;51.824;4.682;2023-01-15T06:16:32;7.40;99.90
37998;DHT22;24079;51.824;4.682;2023-01-15T06:19:03;7.40;99.90
37998;DHT22;24079;51.824;4.682;2023-01-15T06:21:29;7.40;99.90
37998;DHT22;24079;51.824;4.682;2023-01-15T06:23:55;7.40;99.90
37998;DHT22;24079;51.824;4.682;2023-01-15T06:26:22;7.40;99.90
37998;DHT22;24079;51.824;4.682;2023-01-15T06:28:48;7.40;99.90
37998;DHT22;24079;51.824;4.682;2023-01-15T06:31:16;7.30;99.90
37998;DHT22;24079;51.824;4.682;2023-01-15T06:33:42;7.30;99.90
37998;DHT22;24079;51.824;4.682;2023-01-15T06:36:11;7.30;99.90
37998;DHT22;24079;51.824;4.682;2023-01-15T06:38:37;7.30;99.90
37998;DHT22;24079;51.824;4.682;2023-01-15T06:41:05;7.20;99.90
37998;DHT22;24079;51.824;4.682;2023-01-15T06:43:50;7.20;99.90
37998;DHT22;24079;51.824;4.682;2023-01-15T06:46:35;7.20;99.90
37998;DHT22;24079;51.824;4.682;2023-01-15T06:49:19;7.20;99.90
37998;DHT22;24079;51.824;4.682;2023-01-15T06:51:44;7.20;99.90
37998;DHT22;24079;51.824;4.682;2023-01-15T06:54:10;7.20;99.90
37998;DHT22;24079;51.824;4.682;2023-01-15T06:56:35;7.10;99.90
37998;DHT22;24079;51.824;4.682;2023-01-15T06:59:01;7.20;99.90
37998;DHT22;24079;51.824;4.682;2023-01-15T07:01:27;7.20;99.90
37998;DHT22;24079;51.824;4.682;2023-01-15T07:03:55;7.20;99.90
37998;DHT22;24079;51.824;4.682;2023-01-15T07:06:21;7.10;99.90
37998;DHT22;24079;51.824;4.682;2023-01-15T07:08:47;7.10;99.90
37998;DHT22;24079;51.824;4.682;2023-01-15T07:11:12;7.10;99.90
37998;DHT22;24079;51.824;4.682;2023-01-15T07:13:38;7.10;99.90
37998;DHT22;24079;51.824;4.682;2023-01-15T07:16:04;7.10;99.90
37998;DHT22;24079;51.824;4.682;2023-01-15T07:18:32;7.10;99.90
37998;DHT22;24079;51.824;4.682;2023-01-15T07:20:58;7.10;99.90
37998;DHT22;24079;51.824;4.682;2023-01-15T07:23:25;7.10;99.90
37998;DHT22;24079;51.824;4.682;2023-01-15T07:25:52;7.00;99.90
37998;DHT22;24079;51.824;4.682;2023-01-15T07:28:22;7.00;99.90
37998;DHT22;24079;51.824;4.682;2023-01-15T07:30:47;7.00;99.90
37998;DHT22;24079;51.824;4.682;2023-01-15T07:33:13;7.10;99.90
37998;DHT22;24079;51.824;4.682;2023-01-15T07:35:39;7.00;99.90
37998;DHT22;24079;51.824;4.682;2023-01-15T07:38:04;7.10;99.90
37998;DHT22;24079;51.824;4.682;2023-01-15T07:40:30;7.00;99.90
37998;DHT22;24079;51.824;4.682;2023-01-15T07:42:56;7.00;99.90
37998;DHT22;24079;51.824;4.682;2023-01-15T07:45:41;7.00;99.90
37998;DHT22;24079;51.824;4.682;2023-01-15T07:48:31;7.00;99.90
37998;DHT22;24079;51.824;4.682;2023-01-15T07:51:15;7.00;99.90
37998;DHT22;24079;51.824;4.682;2023-01-15T07:53:41;7.10;99.90
37998;DHT22;24079;51.824;4.682;2023-01-15T07:56:07;7.00;99.90
37998;DHT22;24079;51.824;4.682;2023-01-15T07:58:32;7.00;99.90
37998;DHT22;24079;51.824;4.682;2023-01-15T08:00:58;6.90;99.90
37998;DHT22;24079;51.824;4.682;2023-01-15T08:03:24;7.00;99.90
37998;DHT22;24079;51.824;4.682;2023-01-15T08:05:49;7.00;99.90
37998;DHT22;24079;51.824;4.682;2023-01-15T08:08:16;7.00;99.90
37998;DHT22;24079;51.824;4.682;2023-01-15T08:10:42;7.00;99.90
37998;DHT22;24079;51.824;4.682;2023-01-15T08:13:26;7.00;99.90
37998;DHT22;24079;51.824;4.682;2023-01-15T08:16:10;7.10;99.90
37998;DHT22;24079;51.824;4.682;2023-01-15T08:18:37;7.10;99.90
37998;DHT22;24079;51.824;4.682;2023-01-15T08:21:04;7.10;99.90
37998;DHT22;24079;51.824;4.682;2023-01-15T08:23:29;7.20;99.90
37998;DHT22;24079;51.824;4.682;2023-01-15T08:25:58;7.30;99.90
37998;DHT22;24079;51.824;4.682;2023-01-15T08:28:24;7.40;99.90
37998;DHT22;24079;51.824;4.682;2023-01-15T08:30:50;7.40;99.90
37998;DHT22;24079;51.824;4.682;2023-01-15T08:33:15;7.30;99.90
37998;DHT22;24079;51.824;4.682;2023-01-15T08:35:41;7.30;99.90
37998;DHT22;24079;51.824;4.682;2023-01-15T08:38:07;7.20;99.90
37998;DHT22;24079;51.824;4.682;2023-01-15T08:40:34;7.30;99.90
37998;DHT22;24079;51.824;4.682;2023-01-15T08:43:20;7.30;99.90
37998;DHT22;24079;51.824;4.682;2023-01-15T08:45:47;7.30;99.90
37998;DHT22;24079;51.824;4.682;2023-01-15T08:48:13;7.30;99.90
37998;DHT22;24079;51.824;4.682;2023-01-15T08:50:39;7.30;99.90
37998;DHT22;24079;51.824;4.682;2023-01-15T08:53:04;7.20;99.90
37998;DHT22;24079;51.824;4.682;2023-01-15T08:55:30;7.20;99.90
37998;DHT22;24079;51.824;4.682;2023-01-15T08:57:57;7.20;99.90
37998;DHT22;24079;51.824;4.682;2023-01-15T09:00:23;7.20;99.90
37998;DHT22;24079;51.824;4.682;2023-01-15T09:02:49;7.20;99.90
37998;DHT22;24079;51.824;4.682;2023-01-15T09:05:15;7.20;99.90
37998;DHT22;24079;51.824;4.682;2023-01-15T09:07:40;7.20;99.90
37998;DHT22;24079;51.824;4.682;2023-01-15T09:10:06;7.30;99.90
37998;DHT22;24079;51.824;4.682;2023-01-15T09:12:32;7.30;99.90
37998;DHT22;24079;51.824;4.682;2023-01-15T09:14:58;7.30;99.90
37998;DHT22;24079;51.824;4.682;2023-01-15T09:17:26;7.40;99.90
37998;DHT22;24079;51.824;4.682;2023-01-15T09:19:51;7.40;99.90
37998;DHT22;24079;51.824;4.682;2023-01-15T09:22:17;7.50;99.90
37998;DHT22;24079;51.824;4.682;2023-01-15T09:24:42;7.50;99.90
37998;DHT22;24079;51.824;4.682;2023-01-15T09:27:11;7.50;99.90
37998;DHT22;24079;51.824;4.682;2023-01-15T09:29:36;7.50;99.90
37998;DHT22;24079;51.824;4.682;2023-01-15T09:32:02;7.50;99.90
37998;DHT22;24079;51.824;4.682;2023-01-15T09:34:27;7.60;99.90
37998;DHT22;24079;51.824;4.682;2023-01-15T09:36:53;7.60;99.90
37998;DHT22;24079;51.824;4.682;2023-01-15T09:39:19;7.60;99.90
37998;DHT22;24079;51.824;4.682;2023-01-15T09:42:26;7.60;99.90
37998;DHT22;24079;51.824;4.682;2023-01-15T09:45:21;7.60;99.90
37998;DHT22;24079;51.824;4.682;2023-01-15T09:56:03;7.50;99.90
37998;DHT22;24079;51.824;4.682;2023-01-15T09:58:38;7.50;99.90
37998;DHT22;24079;51.824;4.682;2023-01-15T10:01:05;7.60;99.90
37998;DHT22;24079;51.824;4.682;2023-01-15T10:06:37;7.90;99.90
37998;DHT22;24079;51.824;4.682;2023-01-15T10:09:26;7.90;99.90
37998;DHT22;24079;51.824;4.682;2023-01-15T10:11:59;7.90;99.90
37998;DHT22;24079;51.824;4.682;2023-01-15T10:17:55;8.00;99.90
37998;DHT22;24079;51.824;4.682;2023-01-15T10:20:28;8.10;99.90
37998;DHT22;24079;51.824;4.682;2023-01-15T10:23:02;8.20;99.90
37998;DHT22;24079;51.824;4.682;2023-01-15T10:25:48;8.10;99.90
37998;DHT22;24079;51.824;4.682;2023-01-15T10:28:25;8.10;99.90
37998;DHT22;24079;51.824;4.682;2023-01-15T10:30:54;8.20;99.90
37998;DHT22;24079;51.824;4.682;2023-01-15T10:36:18;8.20;99.90
37998;DHT22;24079;51.824;4.682;2023-01-15T10:39:15;8.10;99.90
37998;DHT22;24079;51.824;4.682;2023-01-15T10:42:16;8.00;99.90
37998;DHT22;24079;51.824;4.682;2023-01-15T10:47:10;8.10;99.90
37998;DHT22;24079;51.824;4.682;2023-01-15T10:49:38;8.00;99.90
37998;DHT22;24079;51.824;4.682;2023-01-15T10:54:47;8.00;99.90
37998;DHT22;24079;51.824;4.682;2023-01-15T10:57:35;8.20;99.90
37998;DHT22;24079;51.824;4.682;2023-01-15T11:00:05;8.20;99.90
37998;DHT22;24079;51.824;4.682;2023-01-15T11:02:43;8.10;99.90
37998;DHT22;24079;51.824;4.682;2023-01-15T11:05:18;8.00;99.90
37998;DHT22;24079;51.824;4.682;2023-01-15T11:07:48;7.90;99.90
37998;DHT22;24079;51.824;4.682;2023-01-15T11:10:18;7.70;99.90
37998;DHT22;24079;51.824;4.682;2023-01-15T11:12:57;7.70;99.90
37998;DHT22;24079;51.824;4.682;2023-01-15T11:15:47;7.60;99.90
37998;DHT22;24079;51.824;4.682;2023-01-15T11:18:40;7.60;99.90
37998;DHT22;24079;51.824;4.682;2023-01-15T11:21:25;7.60;99.90
37998;DHT22;24079;51.824;4.682;2023-01-15T11:23:54;7.70;99.90
37998;DHT22;24079;51.824;4.682;2023-01-15T11:26:30;7.70;99.90
37998;DHT22;24079;51.824;4.682;2023-01-15T11:28:58;7.80;99.90
37998;DHT22;24079;51.824;4.682;2023-01-15T11:31:39;7.90;99.90
37998;DHT22;24079;51.824;4.682;2023-01-15T11:34:15;7.80;99.90
37998;DHT22;24079;51.824;4.682;2023-01-15T11:36:42;7.60;99.90
37998;DHT22;24079;51.824;4.682;2023-01-15T11:39:25;7.70;99.90
37998;DHT22;24079;51.824;4.682;2023-01-15T11:42:19;7.90;99.90
37998;DHT22;24079;51.824;4.682;2023-01-15T11:45:12;7.80;99.90
37998;DHT22;24079;51.824;4.682;2023-01-15T11:47:56;7.60;99.90
37998;DHT22;24079;51.824;4.682;2023-01-15T11:50:58;7.50;99.90
37998;DHT22;24079;51.824;4.682;2023-01-15T11:53:32;7.50;99.90
37998;DHT22;24079;51.824;4.682;2023-01-15T11:56:00;7.40;99.90
37998;DHT22;24079;51.824;4.682;2023-01-15T11:58:31;7.50;99.90
37998;DHT22;24079;51.824;4.682;2023-01-15T12:00:58;7.40;99.90
37998;DHT22;24079;51.824;4.682;2023-01-15T12:03:28;7.40;99.90
37998;DHT22;24079;51.824;4.682;2023-01-15T12:06:02;7.40;99.90
37998;DHT22;24079;51.824;4.682;2023-01-15T12:11:30;7.70;99.90
37998;DHT22;24079;51.824;4.682;2023-01-15T12:16:54;8.00;99.90
37998;DHT22;24079;51.824;4.682;2023-01-15T12:25:18;7.80;99.90
37998;DHT22;24079;51.824;4.682;2023-01-15T12:27:48;7.70;99.90
37998;DHT22;24079;51.824;4.682;2023-01-15T12:36:35;7.90;99.90
37998;DHT22;24079;51.824;4.682;2023-01-15T12:41:42;7.80;99.90
37998;DHT22;24079;51.824;4.682;2023-01-15T12:44:44;7.90;99.90
37998;DHT22;24079;51.824;4.682;2023-01-15T12:50:27;7.90;99.90
37998;DHT22;24079;51.824;4.682;2023-01-15T12:53:14;8.00;99.90
37998;DHT22;24079;51.824;4.682;2023-01-15T12:56:13;7.90;99.90
37998;DHT22;24079;51.824;4.682;2023-01-15T12:58:59;7.90;99.90
37998;DHT22;24079;51.824;4.682;2023-01-15T13:01:37;7.90;99.90
37998;DHT22;24079;51.824;4.682;2023-01-15T13:07:03;8.00;99.90
37998;DHT22;24079;51.824;4.682;2023-01-15T13:09:45;7.90;99.90
37998;DHT22;24079;51.824;4.682;2023-01-15T13:12:15;8.00;99.90
37998;DHT22;24079;51.824;4.682;2023-01-15T13:14:41;8.00;99.90
37998;DHT22;24079;51.824;4.682;2023-01-15T13:22:27;8.20;99.90
37998;DHT22;24079;51.824;4.682;2023-01-15T13:25:11;8.20;99.90
37998;DHT22;24079;51.824;4.682;2023-01-15T13:33:17;8.30;99.90
37998;DHT22;24079;51.824;4.682;2023-01-15T13:35:57;8.20;99.90
37998;DHT22;24079;51.824;4.682;2023-01-15T13:38:27;8.20;99.90
37998;DHT22;24079;51.824;4.682;2023-01-15T13:40:56;8.20;99.90
37998;DHT22;24079;51.824;4.682;2023-01-15T13:43:40;8.30;99.90
37998;DHT22;24079;51.824;4.682;2023-01-15T13:46:09;8.30;99.90
37998;DHT22;24079;51.824;4.682;2023-01-15T13:48:50;8.30;99.90
37998;DHT22;24079;51.824;4.682;2023-01-15T13:51:30;8.20;99.90
37998;DHT22;24079;51.824;4.682;2023-01-15T13:53:58;8.20;99.90
37998;DHT22;24079;51.824;4.682;2023-01-15T13:56:30;8.10;99.90
37998;DHT22;24079;51.824;4.682;2023-01-15T13:59:26;8.10;99.90
37998;DHT22;24079;51.824;4.682;2023-01-15T14:01:49;8.20;99.90
37998;DHT22;24079;51.824;4.682;2023-01-15T14:04:14;8.20;99.90
37998;DHT22;24079;51.824;4.682;2023-01-15T14:06:41;8.30;99.90
37998;DHT22;24079;51.824;4.682;2023-01-15T14:09:27;8.40;99.90
37998;DHT22;24079;51.824;4.682;2023-01-15T14:12:18;8.50;99.90
37998;DHT22;24079;51.824;4.682;2023-01-15T14:20:37;8.40;99.90
37998;DHT22;24079;51.824;4.682;2023-01-15T14:23:24;8.30;99.90
37998;DHT22;24079;51.824;4.682;2023-01-15T14:34:12;8.30;99.90
37998;DHT22;24079;51.824;4.682;2023-01-15T14:37:03;8.20;99.90
37998;DHT22;24079;51.824;4.682;2023-01-15T14:39:53;8.20;99.90
37998;DHT22;24079;51.824;4.682;2023-01-15T14:47:53;8.20;99.90
37998;DHT22;24079;51.824;4.682;2023-01-15T14:53:31;8.10;99.90
37998;DHT22;24079;51.824;4.682;2023-01-15T14:58:53;8.10;99.90
37998;DHT22;24079;51.824;4.682;2023-01-15T15:01:40;8.10;99.90
37998;DHT22;24079;51.824;4.682;2023-01-15T15:07:11;8.10;99.90
37998;DHT22;24079;51.824;4.682;2023-01-15T15:09:38;8.10;99.90
37998;DHT22;24079;51.824;4.682;2023-01-15T15:12:36;8.10;99.90
37998;DHT22;24079;51.824;4.682;2023-01-15T15:23:10;7.90;99.90
37998;DHT22;24079;51.824;4.682;2023-01-15T15:25:38;7.80;99.90
37998;DHT22;24079;51.824;4.682;2023-01-15T15:28:07;7.80;99.90
37998;DHT22;24079;51.824;4.682;2023-01-15T15:30:35;7.80;99.90
37998;DHT22;24079;51.824;4.682;2023-01-15T15:33:04;7.70;99.90
37998;DHT22;24079;51.824;4.682;2023-01-15T15:35:31;7.70;99.90
37998;DHT22;24079;51.824;4.682;2023-01-15T15:38:03;7.60;99.90
37998;DHT22;24079;51.824;4.682;2023-01-15T15:40:34;7.70;99.90
37998;DHT22;24079;51.824;4.682;2023-01-15T15:45:55;7.60;99.90
37998;DHT22;24079;51.824;4.682;2023-01-15T15:48:41;7.60;99.90
37998;DHT22;24079;51.824;4.682;2023-01-15T15:51:30;7.60;99.90
37998;DHT22;24079;51.824;4.682;2023-01-15T15:54:13;7.60;99.90
37998;DHT22;24079;51.824;4.682;2023-01-15T15:56:56;7.50;99.90
37998;DHT22;24079;51.824;4.682;2023-01-15T15:59:35;7.50;99.90
37998;DHT22;24079;51.824;4.682;2023-01-15T16:02:23;7.50;99.90
37998;DHT22;24079;51.824;4.682;2023-01-15T16:04:52;7.50;99.90
37998;DHT22;24079;51.824;4.682;2023-01-15T16:07:26;7.50;99.90
37998;DHT22;24079;51.824;4.682;2023-01-15T16:09:59;7.40;99.90
37998;DHT22;24079;51.824;4.682;2023-01-15T16:12:29;7.40;99.90
37998;DHT22;24079;51.824;4.682;2023-01-15T16:14:56;7.40;99.90
37998;DHT22;24079;51.824;4.682;2023-01-15T16:17:24;7.40;99.90
37998;DHT22;24079;51.824;4.682;2023-01-15T16:19:55;7.30;99.90
37998;DHT22;24079;51.824;4.682;2023-01-15T16:22:22;7.30;99.90
37998;DHT22;24079;51.824;4.682;2023-01-15T16:24:58;7.30;99.90
37998;DHT22;24079;51.824;4.682;2023-01-15T16:27:32;7.30;99.90
37998;DHT22;24079;51.824;4.682;2023-01-15T16:30:00;7.30;99.90
37998;DHT22;24079;51.824;4.682;2023-01-15T16:32:29;7.20;99.90
37998;DHT22;24079;51.824;4.682;2023-01-15T16:35:17;7.20;99.90
37998;DHT22;24079;51.824;4.682;2023-01-15T16:37:55;7.20;99.90
37998;DHT22;24079;51.824;4.682;2023-01-15T16:40:34;7.20;99.90
37998;DHT22;24079;51.824;4.682;2023-01-15T16:43:11;7.20;99.90
37998;DHT22;24079;51.824;4.682;2023-01-15T16:48:36;7.20;99.90
37998;DHT22;24079;51.824;4.682;2023-01-15T16:51:22;7.10;99.90
37998;DHT22;24079;51.824;4.682;2023-01-15T16:53:49;7.20;99.90
37998;DHT22;24079;51.824;4.682;2023-01-15T16:56:25;7.10;99.90
37998;DHT22;24079;51.824;4.682;2023-01-15T16:58:52;7.00;99.90
37998;DHT22;24079;51.824;4.682;2023-01-15T17:04:00;7.00;99.90
37998;DHT22;24079;51.824;4.682;2023-01-15T17:06:27;7.00;99.90
37998;DHT22;24079;51.824;4.682;2023-01-15T17:08:54;6.90;99.90
37998;DHT22;24079;51.824;4.682;2023-01-15T17:11:25;6.90;99.90
37998;DHT22;24079;51.824;4.682;2023-01-15T17:14:10;6.90;99.90
37998;DHT22;24079;51.824;4.682;2023-01-15T17:16:43;6.90;99.90
37998;DHT22;24079;51.824;4.682;2023-01-15T17:19:10;6.90;99.90
37998;DHT22;24079;51.824;4.682;2023-01-15T17:21:37;6.80;99.90
37998;DHT22;24079;51.824;4.682;2023-01-15T17:24:07;6.90;99.90
37998;DHT22;24079;51.824;4.682;2023-01-15T17:26:34;6.80;99.90
37998;DHT22;24079;51.824;4.682;2023-01-15T17:29:00;6.80;99.90
37998;DHT22;24079;51.824;4.682;2023-01-15T17:31:31;6.80;99.90
37998;DHT22;24079;51.824;4.682;2023-01-15T17:34:00;6.80;99.90
37998;DHT22;24079;51.824;4.682;2023-01-15T17:36:26;6.70;99.90
37998;DHT22;24079;51.824;4.682;2023-01-15T17:38:53;6.70;99.90
37998;DHT22;24079;51.824;4.682;2023-01-15T17:41:20;6.70;99.90
37998;DHT22;24079;51.824;4.682;2023-01-15T17:43:47;6.70;99.90
37998;DHT22;24079;51.824;4.682;2023-01-15T17:46:15;6.60;99.90
37998;DHT22;24079;51.824;4.682;2023-01-15T17:48:42;6.70;99.90
37998;DHT22;24079;51.824;4.682;2023-01-15T17:51:15;6.60;99.90
37998;DHT22;24079;51.824;4.682;2023-01-15T17:53:41;6.60;99.90
37998;DHT22;24079;51.824;4.682;2023-01-15T17:56:07;6.60;99.90
37998;DHT22;24079;51.824;4.682;2023-01-15T17:58:51;6.50;99.90
37998;DHT22;24079;51.824;4.682;2023-01-15T18:01:43;6.50;99.90
37998;DHT22;24079;51.824;4.682;2023-01-15T18:04:31;6.50;99.90
37998;DHT22;24079;51.824;4.682;2023-01-15T18:07:17;6.50;99.90
37998;DHT22;24079;51.824;4.682;2023-01-15T18:09:45;6.50;99.90
37998;DHT22;24079;51.824;4.682;2023-01-15T18:12:11;6.50;99.90
37998;DHT22;24079;51.824;4.682;2023-01-15T18:14:37;6.50;99.90
37998;DHT22;24079;51.824;4.682;2023-01-15T18:17:03;6.50;99.90
37998;DHT22;24079;51.824;4.682;2023-01-15T18:19:30;6.40;99.90
37998;DHT22;24079;51.824;4.682;2023-01-15T18:21:56;6.40;99.90